Time;durP1;ratioP1;P1;durP2;ratioP2;P2;SDS_P1;SDS_P2;PMS_P1;PMS_P2;Temp;Humidity;BMP_temperature;BMP_pressure;BME280_temperature;BME280_humidity;BME280_pressure;Samples;Min_cycle;Max_cycle;Signal;HPM_P1;HPM_P2
2023/09/06 00:07:34;;;;;;;9.50;5.00;;;;;;;24.08;81.60;100591.47;31380737;28;20041;-79
2023/09/06 00:22:38;;;;;;;9.30;5.90;;;;;;;23.96;87.49;100562.16;31375475;28;20156;-78
2023/09/06 00:37:40;;;;;;;15.02;7.15;;;;;;;23.85;93.52;100562.16;31407222;28;20482;-79
2023/09/06 00:52:43;;;;;;;14.68;7.70;;;;;;;23.85;95.91;100564.91;31402068;28;20205;-79
2023/09/06 01:07:57;;;;;;;10.97;7.63;;;;;;;23.60;100.00;100565.84;31415156;28;20048;-78
2023/09/06 01:23:24;;;;;;;14.20;9.10;;;;;;;23.48;100.00;100554.66;31426614;28;20056;-78
2023/09/06 01:38:26;;;;;;;10.95;7.47;;;;;;;23.39;100.00;100563.16;31403511;28;20063;-78
2023/09/06 01:53:29;;;;;;;15.55;8.68;;;;;;;23.38;100.00;100575.53;31399764;28;20057;-77
2023/09/06 02:08:32;;;;;;;16.48;8.75;;;;;;;23.19;100.00;100565.31;31398549;28;20052;-79
2023/09/06 02:23:35;;;;;;;19.40;9.55;;;;;;;22.94;100.00;100561.38;31399876;28;20139;-79
2023/09/06 02:38:37;;;;;;;21.00;8.95;;;;;;;22.78;100.00;100551.72;31402632;28;20048;-78
2023/09/06 02:53:44;;;;;;;18.15;10.27;;;;;;;22.69;100.00;100563.69;31388095;28;20082;-78
2023/09/06 03:08:46;;;;;;;19.95;10.15;;;;;;;22.44;100.00;100576.28;31388545;28;20043;-78
2023/09/06 03:23:49;;;;;;;18.25;10.73;;;;;;;22.30;100.00;100587.47;31386318;28;20040;-79
2023/09/06 03:38:51;;;;;;;18.05;10.50;;;;;;;22.16;100.00;100593.88;31386413;28;20056;-79
2023/09/06 03:53:53;;;;;;;19.85;10.52;;;;;;;22.38;100.00;100599.63;31394015;28;20498;-79
2023/09/06 04:08:55;;;;;;;19.10;11.10;;;;;;;22.79;100.00;100617.63;31386991;28;20450;-79
2023/09/06 04:23:57;;;;;;;19.23;9.80;;;;;;;23.18;100.00;100636.56;31386577;28;20200;-80
2023/09/06 04:38:59;;;;;;;25.52;9.63;;;;;;;23.51;100.00;100646.34;31388713;28;20061;-79
2023/09/06 04:54:01;;;;;;;16.60;9.20;;;;;;;24.11;100.00;100665.31;31390229;28;20068;-80
2023/09/06 05:09:04;;;;;;;21.05;9.23;;;;;;;24.80;99.70;100679.63;31396026;28;20476;-79
2023/09/06 05:24:06;;;;;;;17.30;9.95;;;;;;;25.49;96.85;100693.81;31404124;28;20049;-80
2023/09/06 05:39:09;;;;;;;20.13;8.80;;;;;;;26.41;91.52;100702.16;31409867;28;20533;-80
2023/09/06 05:54:11;;;;;;;17.48;8.45;;;;;;;27.38;84.48;100722.03;31413683;28;20053;-80
2023/09/06 06:09:15;;;;;;;12.57;7.40;;;;;;;28.17;78.36;100736.69;31384941;28;20049;-81
2023/09/06 06:24:17;;;;;;;18.33;7.75;;;;;;;28.34;77.27;100744.13;31346702;28;20045;-74
2023/09/06 06:39:19;;;;;;;19.43;7.43;;;;;;;29.05;75.29;100743.66;31361373;28;20071;-75
2023/09/06 06:54:21;;;;;;;8.93;5.97;;;;;;;30.12;69.83;100741.28;31364504;28;20080;-75
2023/09/06 07:09:23;;;;;;;23.92;14.73;;;;;;;30.83;66.33;100734.69;31360063;28;20478;-75
2023/09/06 07:24:25;;;;;;;9.05;6.13;;;;;;;31.22;64.62;100724.59;31367371;28;20091;-77
2023/09/06 07:39:27;;;;;;;13.40;5.85;;;;;;;31.64;62.79;100721.75;31371986;28;20465;-77
2023/09/06 07:54:29;;;;;;;9.40;6.53;;;;;;;33.29;57.57;100704.56;31382463;28;20056;-81
2023/09/06 08:09:31;;;;;;;7.63;4.63;;;;;;;34.04;54.12;100700.81;31380325;28;20175;-74
2023/09/06 08:24:33;;;;;;;7.78;5.68;;;;;;;34.74;50.08;100697.09;31367669;28;20085;-75
2023/09/06 08:39:35;;;;;;;14.10;9.10;;;;;;;34.85;48.38;100702.31;31364965;28;20048;-80
2023/09/06 08:54:38;;;;;;;9.65;3.88;;;;;;;34.74;48.10;100711.19;31405994;28;20084;-73
2023/09/06 09:10:09;;;;;;;6.40;4.82;;;;;;;35.66;45.67;100699.94;31435481;28;20539;-86
2023/09/06 09:25:14;;;;;;;7.38;5.30;;;;;;;36.63;44.20;100690.06;31400848;28;20044;-79
2023/09/06 09:40:22;;;;;;;7.55;4.13;;;;;;;37.42;42.32;100693.34;31388436;28;20036;-78
2023/09/06 09:55:41;;;;;;;6.60;4.43;;;;;;;37.72;39.89;100694.13;31376909;28;20060;-75
2023/09/06 10:10:43;;;;;;;17.70;4.90;;;;;;;37.92;40.83;100687.13;31372532;28;20048;-77
2023/09/06 10:25:49;;;;;;;7.38;4.38;;;;;;;37.76;40.68;100685.94;31422523;28;20045;-84
2023/09/06 10:40:53;;;;;;;6.30;5.70;;;;;;;38.18;40.18;100672.03;31410296;28;20171;-86
2023/09/06 10:55:56;;;;;;;7.25;5.00;;;;;;;37.48;40.58;100678.91;31374209;28;20052;-77
2023/09/06 11:11:00;;;;;;;8.35;4.78;;;;;;;37.06;40.53;100650.94;31409696;28;20044;-76
2023/09/06 11:26:03;;;;;;;11.48;5.70;;;;;;;37.89;40.11;100643.72;31396956;28;20053;-78
2023/09/06 11:41:08;;;;;;;8.07;4.70;;;;;;;38.78;38.25;100631.53;31397044;28;20465;-78
2023/09/06 11:56:11;;;;;;;11.15;4.72;;;;;;;36.97;38.28;100626.94;31372072;28;20057;-77
2023/09/06 12:11:21;;;;;;;8.25;5.72;;;;;;;35.42;39.68;100611.19;31380937;28;20051;-78
2023/09/06 12:26:23;;;;;;;5.80;5.00;;;;;;;34.02;40.77;100607.69;31371057;28;20056;-77
2023/09/06 12:41:26;;;;;;;7.65;5.32;;;;;;;33.81;41.39;100598.78;31405242;28;20140;-78
2023/09/06 12:56:28;;;;;;;7.13;5.25;;;;;;;33.72;41.57;100611.41;31377615;28;20059;-76
2023/09/06 13:11:30;;;;;;;7.82;5.43;;;;;;;33.14;42.76;100587.13;31384943;28;20093;-77
2023/09/06 13:26:32;;;;;;;8.80;4.47;;;;;;;32.91;42.80;100577.97;31391678;28;20041;-78
2023/09/06 13:41:34;;;;;;;18.80;6.30;;;;;;;32.12;43.38;100577.69;31358328;28;20057;-82
2023/09/06 13:56:36;;;;;;;8.55;5.80;;;;;;;32.20;42.51;100575.66;31391904;28;20564;-74
2023/09/06 14:11:38;;;;;;;12.70;5.10;;;;;;;32.05;42.34;100572.81;31379113;28;20494;-74
2023/09/06 14:26:44;;;;;;;6.57;3.88;;;;;;;31.88;42.52;100555.72;31390991;28;20118;-75
2023/09/06 14:41:46;;;;;;;6.20;3.80;;;;;;;31.66;42.56;100561.97;31386626;28;20076;-75
2023/09/06 14:56:48;;;;;;;4.95;3.20;;;;;;;31.44;42.50;100564.13;31385276;28;20454;-81
2023/09/06 15:11:52;;;;;;;7.13;4.15;;;;;;;30.95;43.67;100563.41;31378941;28;20057;-82
2023/09/06 15:26:57;;;;;;;12.13;5.78;;;;;;;30.44;44.48;100563.94;31407632;28;20047;-86
2023/09/06 15:41:59;;;;;;;9.25;5.05;;;;;;;30.33;45.01;100564.19;31423842;28;20049;-81
2023/09/06 15:57:01;;;;;;;12.43;4.88;;;;;;;30.18;45.21;100585.13;31400536;28;20060;-82
2023/09/06 16:12:04;;;;;;;11.45;5.13;;;;;;;29.70;45.88;100589.22;31382979;28;20041;-78
2023/09/06 16:27:10;;;;;;;11.82;5.82;;;;;;;29.31;47.03;100615.13;31406300;28;20056;-83
2023/09/06 16:42:14;;;;;;;10.07;6.20;;;;;;;29.01;47.57;100623.06;31400592;28;20040;-80
2023/09/06 16:57:16;;;;;;;9.40;5.20;;;;;;;28.73;47.63;100632.63;31402704;28;20062;-78
2023/09/06 17:12:20;;;;;;;9.10;5.23;;;;;;;28.40;46.78;100655.47;31386462;28;20127;-78
2023/09/06 17:27:22;;;;;;;8.77;3.72;;;;;;;28.10;46.25;100659.16;31370183;28;20393;-78
2023/09/06 17:42:24;;;;;;;12.23;6.83;;;;;;;27.83;45.50;100674.19;31377978;28;20045;-76
2023/09/06 17:57:27;;;;;;;5.13;2.80;;;;;;;27.65;44.92;100684.00;31382648;28;20484;-78
2023/09/06 18:12:29;;;;;;;7.28;3.40;;;;;;;27.29;45.08;100685.38;31401489;28;20045;-76
2023/09/06 18:27:31;;;;;;;8.43;3.27;;;;;;;26.99;44.81;100688.91;31400245;28;20088;-76
2023/09/06 18:42:35;;;;;;;8.63;3.67;;;;;;;26.69;45.15;100688.09;31382957;28;20051;-77
2023/09/06 18:57:39;;;;;;;10.27;3.63;;;;;;;26.52;45.38;100698.56;31378309;28;20085;-74
2023/09/06 19:12:55;;;;;;;7.85;3.22;;;;;;;26.37;45.40;100696.13;31395624;28;20056;-73
2023/09/06 19:27:57;;;;;;;11.27;5.00;;;;;;;25.99;45.72;100700.53;31383935;28;20148;-74
2023/09/06 19:43:02;;;;;;;7.93;4.38;;;;;;;25.79;46.09;100705.16;31358393;28;20225;-76
2023/09/06 19:58:04;;;;;;;8.98;3.63;;;;;;;25.71;46.02;100697.84;31378824;28;20067;-75
2023/09/06 20:13:06;;;;;;;8.80;5.07;;;;;;;25.46;46.77;100703.19;31386655;28;20491;-77
2023/09/06 20:28:09;;;;;;;12.65;6.47;;;;;;;24.87;48.00;100699.84;31353236;28;20478;-76
2023/09/06 20:43:11;;;;;;;13.93;6.60;;;;;;;24.74;48.69;100698.34;31342967;28;20053;-77
2023/09/06 20:58:16;;;;;;;12.60;6.30;;;;;;;24.47;49.91;100701.78;31371734;28;20052;-76
2023/09/06 21:13:18;;;;;;;14.80;6.57;;;;;;;24.18;51.91;100708.47;31389758;28;20487;-76
2023/09/06 21:28:20;;;;;;;11.88;5.07;;;;;;;23.99;53.47;100708.13;31383659;28;20084;-76
2023/09/06 21:43:22;;;;;;;9.02;4.78;;;;;;;23.73;55.82;100707.47;31373402;28;20049;-77
2023/09/06 21:58:24;;;;;;;9.25;4.68;;;;;;;23.47;58.08;100697.22;31373319;28;20053;-77
2023/09/06 22:13:26;;;;;;;12.80;5.15;;;;;;;23.44;59.86;100687.09;31388465;28;20102;-75
2023/09/06 22:28:31;;;;;;;11.70;5.18;;;;;;;23.20;61.46;100686.69;31381177;28;20041;-75
2023/09/06 22:43:34;;;;;;;14.02;5.38;;;;;;;23.10;63.14;100691.66;31372216;28;20045;-77
2023/09/06 22:58:36;;;;;;;13.90;6.00;;;;;;;23.05;64.67;100672.22;31366451;28;20095;-77
2023/09/06 23:13:39;;;;;;;10.98;6.03;;;;;;;23.17;65.14;100673.81;31395501;28;20044;-77
2023/09/06 23:28:44;;;;;;;11.98;5.53;;;;;;;22.99;66.71;100674.16;31400863;28;20379;-75
2023/09/06 23:43:47;;;;;;;16.60;7.35;;;;;;;22.83;68.67;100677.56;31394688;28;20123;-76
2023/09/06 23:58:50;;;;;;;13.57;6.60;;;;;;;22.85;69.43;100666.75;31380856;28;20136;-77
